Time;durP1;ratioP1;P1;durP2;ratioP2;P2;SDS_P1;SDS_P2;PMS_P1;PMS_P2;Temp;Humidity;BMP_temperature;BMP_pressure;BME280_temperature;BME280_humidity;BME280_pressure;Samples;Min_cycle;Max_cycle;Signal;HPM_P1;HPM_P2
2023/04/03 00:01:04;;;;;;;2.37;1.63;;;3.20;99.90;;;;;;5072676;28;20245;-74
2023/04/03 00:03:30;;;;;;;2.63;1.10;;;3.30;99.90;;;;;;5071117;28;20185;-74
2023/04/03 00:05:56;;;;;;;2.90;1.67;;;3.30;99.90;;;;;;5071236;28;20411;-77
2023/04/03 00:08:21;;;;;;;7.57;2.00;;;3.20;99.90;;;;;;5071878;28;20966;-74
2023/04/03 00:10:49;;;;;;;2.70;1.57;;;3.20;99.90;;;;;;5072730;28;20192;-76
2023/04/03 00:13:15;;;;;;;2.90;1.53;;;3.20;99.90;;;;;;5070896;28;20256;-77
2023/04/03 00:15:41;;;;;;;2.93;1.80;;;3.20;99.90;;;;;;5071152;28;20974;-75
2023/04/03 00:18:07;;;;;;;3.53;1.97;;;3.30;99.90;;;;;;5072117;28;20426;-74
2023/04/03 00:20:33;;;;;;;2.50;1.53;;;3.20;99.90;;;;;;5072134;28;20449;-76
2023/04/03 00:23:00;;;;;;;5.00;2.00;;;3.20;99.90;;;;;;5072591;28;21247;-75
2023/04/03 00:25:27;;;;;;;6.50;2.33;;;3.20;99.90;;;;;;5073036;28;20176;-76
2023/04/03 00:27:53;;;;;;;5.77;1.63;;;3.20;99.90;;;;;;5071903;28;20474;-76
2023/04/03 00:30:20;;;;;;;3.10;1.87;;;3.20;99.90;;;;;;5072284;28;20922;-75
2023/04/03 00:32:48;;;;;;;8.87;2.60;;;3.20;99.90;;;;;;5073096;28;20331;-77
2023/04/03 00:35:15;;;;;;;4.40;1.97;;;3.20;99.90;;;;;;5071623;28;20411;-75
2023/04/03 00:37:42;;;;;;;2.77;1.60;;;3.20;99.90;;;;;;5088217;28;20428;-76
2023/04/03 00:40:09;;;;;;;3.33;1.80;;;3.20;99.90;;;;;;5070487;28;20429;-75
2023/04/03 00:42:36;;;;;;;3.00;1.53;;;3.20;99.90;;;;;;5070988;28;20931;-77
2023/04/03 00:45:02;;;;;;;3.93;1.87;;;3.10;99.90;;;;;;5071274;28;20450;-75
2023/04/03 00:47:29;;;;;;;5.57;2.50;;;3.10;99.90;;;;;;5074005;28;20919;-75
2023/04/03 00:49:55;;;;;;;4.43;2.07;;;3.10;99.90;;;;;;5072151;28;20201;-78
2023/04/03 00:52:26;;;;;;;2.43;1.20;;;3.10;99.90;;;;;;5072319;28;20969;-74
2023/04/03 00:54:56;;;;;;;3.63;1.50;;;3.00;99.90;;;;;;5069186;28;20502;-75
2023/04/03 00:57:22;;;;;;;5.73;1.60;;;3.10;99.90;;;;;;5072006;28;20412;-76
2023/04/03 00:59:59;;;;;;;2.43;1.20;;;3.10;99.90;;;;;;5070808;28;20519;-75
2023/04/03 01:02:25;;;;;;;2.40;1.23;;;3.00;99.90;;;;;;5067037;28;20430;-75
2023/04/03 01:04:51;;;;;;;3.10;2.07;;;3.00;99.90;;;;;;5072580;28;20450;-77
2023/04/03 01:07:24;;;;;;;2.40;1.30;;;3.00;99.90;;;;;;5069539;28;20442;-75
2023/04/03 01:09:55;;;;;;;5.00;1.80;;;3.00;99.90;;;;;;5071125;28;20474;-74
2023/04/03 01:12:25;;;;;;;2.43;1.70;;;2.90;99.90;;;;;;5070810;28;20514;-74
2023/04/03 01:15:03;;;;;;;2.80;1.50;;;3.00;99.90;;;;;;5070916;28;20814;-75
2023/04/03 01:17:32;;;;;;;2.77;1.43;;;2.90;99.90;;;;;;5072370;28;20419;-75
2023/04/03 01:20:11;;;;;;;2.17;1.70;;;3.00;99.90;;;;;;5070349;28;20412;-77
2023/04/03 01:23:05;;;;;;;4.87;1.97;;;3.00;99.90;;;;;;5070299;28;20443;-74
2023/04/03 01:25:32;;;;;;;3.40;1.70;;;2.90;99.90;;;;;;5042390;28;20468;-74
2023/04/03 01:27:58;;;;;;;2.57;1.30;;;2.90;99.90;;;;;;5073590;28;20431;-75
2023/04/03 01:30:30;;;;;;;3.50;1.60;;;2.90;99.90;;;;;;5070894;28;20455;-74
2023/04/03 01:32:56;;;;;;;4.20;1.83;;;2.90;99.90;;;;;;5071072;28;20204;-73
2023/04/03 01:35:22;;;;;;;5.13;1.97;;;2.90;99.90;;;;;;5087611;28;20435;-75
2023/04/03 01:37:47;;;;;;;3.30;1.87;;;2.90;99.90;;;;;;5074016;28;20169;-74
2023/04/03 01:40:13;;;;;;;2.63;1.80;;;2.90;99.90;;;;;;5077812;28;20453;-74
2023/04/03 01:42:39;;;;;;;4.10;1.70;;;2.80;99.90;;;;;;5077786;28;20204;-75
2023/04/03 01:45:05;;;;;;;3.00;1.20;;;2.80;99.90;;;;;;5083154;28;20301;-74
2023/04/03 01:47:31;;;;;;;2.70;1.20;;;2.80;99.90;;;;;;5087929;28;20168;-80
2023/04/03 01:49:56;;;;;;;3.10;1.60;;;2.80;99.90;;;;;;5092727;28;20467;-80
2023/04/03 01:52:22;;;;;;;2.77;1.47;;;2.80;99.90;;;;;;5096918;28;20205;-80
2023/04/03 01:54:47;;;;;;;3.13;1.27;;;2.80;99.90;;;;;;5096696;28;20183;-81
2023/04/03 01:57:14;;;;;;;2.20;1.60;;;2.70;99.90;;;;;;5097507;28;20181;-81
2023/04/03 01:59:40;;;;;;;4.70;1.63;;;2.70;99.90;;;;;;5098331;28;20168;-80
2023/04/03 02:02:06;;;;;;;2.03;1.37;;;2.70;99.90;;;;;;5097406;28;20427;-81
2023/04/03 02:04:31;;;;;;;2.70;1.50;;;2.70;99.90;;;;;;5098089;28;20173;-81
2023/04/03 02:06:57;;;;;;;2.77;1.40;;;2.70;99.90;;;;;;5114548;28;20177;-81
2023/04/03 02:09:23;;;;;;;3.17;2.13;;;2.70;99.90;;;;;;5098171;28;20227;-79
2023/04/03 02:11:48;;;;;;;3.23;1.67;;;2.70;99.90;;;;;;5083119;28;20724;-73
2023/04/03 02:14:14;;;;;;;2.57;1.57;;;2.70;99.90;;;;;;5088880;28;20177;-75
2023/04/03 02:16:39;;;;;;;2.60;1.53;;;2.70;99.90;;;;;;5070441;28;20180;-76
2023/04/03 02:19:05;;;;;;;2.40;1.17;;;2.60;99.90;;;;;;5069474;28;20572;-76
2023/04/03 02:21:31;;;;;;;5.10;1.70;;;2.60;99.90;;;;;;5068627;28;20622;-76
2023/04/03 02:23:56;;;;;;;4.30;1.83;;;2.50;99.90;;;;;;5069105;28;20231;-75
2023/04/03 02:26:22;;;;;;;6.00;1.90;;;2.50;99.90;;;;;;5067844;28;20181;-74
2023/04/03 02:28:47;;;;;;;1.67;1.00;;;2.50;99.90;;;;;;5066225;28;20204;-78
2023/04/03 02:31:13;;;;;;;3.20;1.53;;;2.50;99.90;;;;;;5068247;28;20281;-78
2023/04/03 02:33:39;;;;;;;5.43;1.50;;;2.50;99.90;;;;;;5067963;28;20177;-75
2023/04/03 02:36:06;;;;;;;6.83;2.90;;;2.50;99.90;;;;;;5065898;28;20173;-75
2023/04/03 02:38:32;;;;;;;4.83;1.33;;;2.50;99.90;;;;;;5068053;28;20176;-75
2023/04/03 02:41:04;;;;;;;2.40;1.60;;;2.60;99.90;;;;;;5068053;28;20413;-75
2023/04/03 02:43:30;;;;;;;3.37;1.63;;;2.70;99.90;;;;;;5083473;28;20424;-77
2023/04/03 02:45:56;;;;;;;3.00;1.60;;;2.60;99.90;;;;;;5067107;28;20426;-76
2023/04/03 02:48:22;;;;;;;3.63;1.30;;;2.50;99.90;;;;;;5068427;28;20181;-75
2023/04/03 02:50:48;;;;;;;3.20;1.87;;;2.50;99.90;;;;;;5068809;28;20259;-75
2023/04/03 02:53:13;;;;;;;1.77;1.23;;;2.50;99.90;;;;;;5067024;28;20573;-75
2023/04/03 02:55:39;;;;;;;3.97;1.83;;;2.50;99.90;;;;;;5067604;28;20657;-75
2023/04/03 02:58:05;;;;;;;3.47;2.00;;;2.50;99.90;;;;;;5067317;28;20173;-75
2023/04/03 03:00:31;;;;;;;2.50;1.37;;;2.50;99.90;;;;;;5068656;28;20177;-75
2023/04/03 03:02:56;;;;;;;4.00;2.07;;;2.60;99.90;;;;;;5066458;28;20817;-77
2023/04/03 03:05:22;;;;;;;6.10;2.13;;;2.50;99.90;;;;;;5083526;28;20282;-75
2023/04/03 03:07:48;;;;;;;3.80;1.87;;;2.50;99.90;;;;;;5084561;28;20185;-76
2023/04/03 03:10:14;;;;;;;2.10;1.43;;;2.50;99.90;;;;;;5066715;28;20226;-76
2023/04/03 03:12:40;;;;;;;3.77;1.80;;;2.50;99.90;;;;;;5066490;28;20200;-75
2023/04/03 03:15:06;;;;;;;4.30;1.57;;;2.60;99.90;;;;;;5067627;28;20419;-75
2023/04/03 03:17:32;;;;;;;3.50;1.70;;;2.60;99.90;;;;;;5067326;28;20438;-74
2023/04/03 03:19:58;;;;;;;2.90;1.80;;;2.70;99.90;;;;;;5068150;28;20919;-75
2023/04/03 03:22:23;;;;;;;3.53;1.40;;;2.60;99.90;;;;;;5065891;28;20671;-78
2023/04/03 03:24:49;;;;;;;1.50;0.80;;;2.60;99.90;;;;;;5067408;28;20185;-75
2023/04/03 03:27:15;;;;;;;2.40;1.30;;;2.60;99.90;;;;;;5067575;28;20177;-75
2023/04/03 03:29:42;;;;;;;1.90;1.20;;;2.60;99.90;;;;;;5067870;28;20232;-75
2023/04/03 03:32:07;;;;;;;2.03;1.13;;;2.60;99.90;;;;;;5064700;28;20454;-74
2023/04/03 03:34:33;;;;;;;5.03;2.13;;;2.60;99.90;;;;;;5068092;28;20423;-75
2023/04/03 03:36:59;;;;;;;3.27;1.20;;;2.60;99.90;;;;;;5065813;28;20181;-74
2023/04/03 03:39:24;;;;;;;3.13;1.80;;;2.60;99.90;;;;;;5061717;28;20181;-74
2023/04/03 03:41:50;;;;;;;5.57;2.00;;;2.60;99.90;;;;;;5067228;28;20197;-75
2023/04/03 03:44:16;;;;;;;2.77;1.40;;;2.60;99.90;;;;;;5068841;28;20655;-74
2023/04/03 03:46:41;;;;;;;2.27;1.50;;;2.60;99.90;;;;;;5070588;28;20181;-74
2023/04/03 03:49:07;;;;;;;4.37;2.07;;;2.50;99.90;;;;;;5070112;28;20205;-74
2023/04/03 03:51:33;;;;;;;2.90;1.50;;;2.60;99.90;;;;;;5069935;28;20635;-77
2023/04/03 03:53:58;;;;;;;2.87;1.60;;;2.50;99.90;;;;;;5069652;28;20186;-74
2023/04/03 03:56:25;;;;;;;2.83;1.50;;;2.50;99.90;;;;;;5070361;28;20204;-74
2023/04/03 03:58:50;;;;;;;3.67;1.70;;;2.50;99.90;;;;;;5070330;28;20177;-74
2023/04/03 04:01:17;;;;;;;2.57;1.60;;;2.50;99.90;;;;;;5069522;28;20504;-74
2023/04/03 04:03:42;;;;;;;4.03;1.97;;;2.60;99.90;;;;;;5070143;28;20181;-74
2023/04/03 04:06:08;;;;;;;2.90;1.67;;;2.60;99.90;;;;;;5071018;28;20430;-75
2023/04/03 04:08:34;;;;;;;4.50;1.57;;;2.60;99.90;;;;;;5068775;28;20272;-75
2023/04/03 04:10:59;;;;;;;3.33;1.70;;;2.60;99.90;;;;;;5069472;28;20259;-76
2023/04/03 04:13:25;;;;;;;2.70;1.40;;;2.70;99.90;;;;;;5069599;28;20579;-74
2023/04/03 04:15:51;;;;;;;2.83;1.43;;;2.50;99.90;;;;;;5069213;28;20227;-74
2023/04/03 04:18:17;;;;;;;2.57;1.60;;;2.50;99.90;;;;;;5086714;28;20608;-74
2023/04/03 04:20:45;;;;;;;2.73;1.10;;;2.50;99.90;;;;;;5068134;28;20185;-76
2023/04/03 04:23:11;;;;;;;2.90;1.80;;;2.50;99.90;;;;;;5069759;28;20464;-76
2023/04/03 04:25:37;;;;;;;2.27;1.40;;;2.50;99.90;;;;;;5068693;28;20415;-74
2023/04/03 04:28:02;;;;;;;5.23;1.80;;;2.60;99.90;;;;;;5069817;28;20195;-77
2023/04/03 04:30:28;;;;;;;2.10;1.50;;;2.50;99.90;;;;;;5068517;28;20313;-74
2023/04/03 04:32:53;;;;;;;3.40;1.80;;;2.50;99.90;;;;;;5069494;28;20267;-75
2023/04/03 04:35:19;;;;;;;2.37;1.23;;;2.60;99.90;;;;;;5068992;28;20185;-74
2023/04/03 04:37:45;;;;;;;3.53;1.43;;;2.50;99.90;;;;;;5069964;28;20181;-75
2023/04/03 04:40:11;;;;;;;1.73;1.13;;;2.50;99.90;;;;;;5067976;28;20770;-75
2023/04/03 04:42:36;;;;;;;4.73;1.30;;;2.50;99.90;;;;;;5069122;28;20245;-74
2023/04/03 04:45:02;;;;;;;2.10;1.40;;;2.50;99.90;;;;;;5070947;28;20189;-75
2023/04/03 04:47:29;;;;;;;1.90;1.40;;;2.50;99.90;;;;;;5077930;28;20268;-74
2023/04/03 04:49:55;;;;;;;2.33;1.47;;;2.70;99.90;;;;;;5078160;28;20228;-75
2023/04/03 04:52:21;;;;;;;4.00;2.20;;;2.50;99.90;;;;;;5077791;28;20462;-75
2023/04/03 04:54:46;;;;;;;2.37;1.60;;;2.50;99.90;;;;;;5075258;28;20182;-77
2023/04/03 04:57:12;;;;;;;2.77;1.40;;;2.50;99.90;;;;;;5077019;28;20177;-76
2023/04/03 04:59:37;;;;;;;4.07;2.10;;;2.60;99.90;;;;;;5069984;28;20195;-76
2023/04/03 05:02:03;;;;;;;3.00;1.37;;;2.60;99.90;;;;;;5069231;28;20204;-75
2023/04/03 05:04:29;;;;;;;3.00;1.57;;;2.50;99.90;;;;;;5068612;28;20261;-75
2023/04/03 05:06:54;;;;;;;5.77;1.83;;;2.60;99.90;;;;;;5070061;28;20199;-75
2023/04/03 05:09:20;;;;;;;2.30;1.07;;;2.50;99.90;;;;;;5069679;28;20578;-76
2023/04/03 05:11:46;;;;;;;2.33;1.40;;;2.50;99.90;;;;;;5068005;28;20255;-75
2023/04/03 05:14:12;;;;;;;3.03;1.50;;;2.50;99.90;;;;;;5069642;28;20488;-74
2023/04/03 05:16:38;;;;;;;4.07;1.77;;;2.50;99.90;;;;;;5069063;28;20514;-74
2023/04/03 05:19:03;;;;;;;2.77;1.63;;;2.60;99.90;;;;;;5069306;28;20188;-75
2023/04/03 05:21:32;;;;;;;2.60;1.23;;;2.60;99.90;;;;;;5068739;28;20201;-76
2023/04/03 05:24:02;;;;;;;2.80;1.37;;;2.60;99.90;;;;;;5068666;28;20550;-75
2023/04/03 05:26:29;;;;;;;2.33;1.30;;;2.70;99.90;;;;;;5069013;28;20449;-75
2023/04/03 05:28:55;;;;;;;2.00;1.20;;;2.60;99.90;;;;;;5084522;28;20490;-75
2023/04/03 05:31:21;;;;;;;4.17;1.87;;;2.70;99.90;;;;;;5068567;28;20463;-72
2023/04/03 05:33:46;;;;;;;2.03;1.10;;;2.60;99.90;;;;;;5068164;28;20188;-75
2023/04/03 05:36:12;;;;;;;2.57;1.27;;;2.60;99.90;;;;;;5068083;28;20264;-75
2023/04/03 05:38:39;;;;;;;2.93;1.53;;;2.70;99.90;;;;;;5069238;28;20189;-74
2023/04/03 05:41:05;;;;;;;1.87;1.13;;;2.70;99.90;;;;;;5084838;28;20459;-75
2023/04/03 05:43:31;;;;;;;2.00;1.17;;;2.80;99.90;;;;;;5067733;28;20923;-74
2023/04/03 05:45:56;;;;;;;2.33;1.27;;;2.80;99.90;;;;;;5068782;28;20407;-75
2023/04/03 05:48:22;;;;;;;1.83;1.17;;;2.70;99.90;;;;;;5072180;28;20621;-75
2023/04/03 05:50:48;;;;;;;2.50;1.23;;;3.00;99.90;;;;;;5069242;28;20226;-76
2023/04/03 05:53:24;;;;;;;3.30;1.10;;;2.80;99.90;;;;;;5067078;28;20248;-75
2023/04/03 05:55:50;;;;;;;2.30;1.30;;;2.90;99.90;;;;;;5084514;28;20429;-76
2023/04/03 05:58:15;;;;;;;4.90;1.30;;;2.90;99.90;;;;;;5071401;28;20515;-77
2023/04/03 06:00:41;;;;;;;2.67;1.23;;;2.90;99.90;;;;;;5068394;28;20231;-76
2023/04/03 06:03:06;;;;;;;2.80;1.33;;;3.00;99.60;;;;;;5067507;28;20696;-77
2023/04/03 06:05:32;;;;;;;2.10;1.13;;;2.90;99.10;;;;;;5069249;28;20230;-75
2023/04/03 06:07:58;;;;;;;2.43;1.60;;;3.00;98.60;;;;;;5069513;28;20192;-77
2023/04/03 06:10:23;;;;;;;1.40;0.90;;;3.00;98.80;;;;;;5073725;28;20208;-77
2023/04/03 06:12:50;;;;;;;3.20;0.97;;;3.00;99.00;;;;;;5108287;28;20220;-75
2023/04/03 06:15:16;;;;;;;1.87;1.03;;;3.10;98.60;;;;;;5093207;28;20169;-78
2023/04/03 06:17:42;;;;;;;1.83;1.10;;;3.20;98.70;;;;;;5093769;28;20454;-77
2023/04/03 06:20:09;;;;;;;2.27;1.07;;;3.20;98.30;;;;;;5093728;28;20403;-75
2023/04/03 06:22:35;;;;;;;3.50;1.40;;;3.10;98.30;;;;;;5093238;28;20264;-80
2023/04/03 06:25:01;;;;;;;2.17;1.07;;;3.20;98.10;;;;;;5090603;28;20473;-75
2023/04/03 06:27:27;;;;;;;2.37;1.10;;;3.20;98.20;;;;;;5090771;28;20423;-74
2023/04/03 06:29:53;;;;;;;3.50;1.10;;;3.20;98.10;;;;;;5093839;28;20459;-78
2023/04/03 06:32:18;;;;;;;5.13;1.10;;;3.20;98.40;;;;;;5097803;28;20201;-80
2023/04/03 06:34:45;;;;;;;3.13;1.23;;;3.20;98.60;;;;;;5098114;28;20475;-80
2023/04/03 06:37:17;;;;;;;2.90;1.47;;;3.30;99.00;;;;;;5098485;28;20172;-81
2023/04/03 06:39:43;;;;;;;3.00;1.33;;;3.30;98.70;;;;;;5094778;28;20412;-80
2023/04/03 06:42:08;;;;;;;3.80;1.73;;;3.40;99.00;;;;;;5094201;28;20486;-74
2023/04/03 06:44:34;;;;;;;1.93;1.03;;;3.40;99.10;;;;;;5073380;28;20639;-74
2023/04/03 06:47:00;;;;;;;3.23;1.37;;;3.40;99.00;;;;;;5072647;28;20188;-75
2023/04/03 06:49:26;;;;;;;3.63;1.43;;;3.40;99.00;;;;;;5072843;28;20308;-76
2023/04/03 06:51:52;;;;;;;1.50;0.90;;;3.40;99.10;;;;;;5087546;28;20185;-75
2023/04/03 06:54:18;;;;;;;1.90;1.20;;;3.40;99.50;;;;;;5087047;28;20185;-76
2023/04/03 06:56:44;;;;;;;3.57;1.17;;;3.50;99.00;;;;;;5078961;28;20196;-78
2023/04/03 06:59:12;;;;;;;3.57;1.40;;;3.60;99.00;;;;;;5089361;28;20455;-77
2023/04/03 07:01:37;;;;;;;4.53;1.03;;;3.60;98.70;;;;;;5076429;28;20571;-77
2023/04/03 07:04:03;;;;;;;2.73;1.43;;;3.60;98.70;;;;;;5073880;28;20520;-76
2023/04/03 07:06:30;;;;;;;2.30;1.20;;;3.60;98.30;;;;;;5068346;28;20206;-74
2023/04/03 07:08:56;;;;;;;1.80;1.10;;;3.50;98.80;;;;;;5067032;28;20208;-74
2023/04/03 07:11:22;;;;;;;2.27;1.10;;;3.60;98.60;;;;;;5067432;28;20435;-74
2023/04/03 07:13:48;;;;;;;1.93;1.30;;;3.70;98.60;;;;;;5068017;28;20244;-76
2023/04/03 07:16:13;;;;;;;1.87;0.90;;;3.80;98.40;;;;;;5071065;28;20925;-75
2023/04/03 07:18:39;;;;;;;1.83;1.10;;;3.90;98.30;;;;;;5074054;28;20192;-74
2023/04/03 07:21:05;;;;;;;2.77;1.40;;;3.90;98.20;;;;;;5073213;28;20177;-74
2023/04/03 07:23:31;;;;;;;1.87;1.10;;;3.90;98.00;;;;;;5071203;28;20847;-75
2023/04/03 07:25:57;;;;;;;4.10;1.17;;;4.00;98.00;;;;;;5075480;28;20427;-74
2023/04/03 07:28:22;;;;;;;2.33;1.27;;;4.00;98.00;;;;;;5074322;28;20189;-75
2023/04/03 07:30:54;;;;;;;3.00;1.00;;;4.00;98.00;;;;;;5074641;28;20228;-76
2023/04/03 07:33:22;;;;;;;2.03;0.90;;;4.10;98.10;;;;;;5074957;28;20747;-76
2023/04/03 07:35:48;;;;;;;1.80;1.20;;;4.10;98.00;;;;;;5077760;28;20433;-75
2023/04/03 07:38:14;;;;;;;3.47;1.57;;;4.20;98.00;;;;;;5075501;28;20510;-77
2023/04/03 07:40:40;;;;;;;2.17;1.17;;;4.20;98.00;;;;;;5080765;28;20212;-76
2023/04/03 07:43:06;;;;;;;2.63;1.40;;;4.80;98.30;;;;;;5083328;28;20216;-77
2023/04/03 07:45:34;;;;;;;3.80;1.47;;;5.40;96.90;;;;;;5098341;28;20494;-80
2023/04/03 07:48:00;;;;;;;1.90;1.10;;;5.60;96.20;;;;;;5099942;28;20184;-81
2023/04/03 07:50:27;;;;;;;2.63;1.37;;;5.60;96.20;;;;;;5100683;28;20470;-80
2023/04/03 07:52:54;;;;;;;3.00;1.20;;;5.30;96.30;;;;;;5101976;28;20442;-81
2023/04/03 07:55:20;;;;;;;2.60;1.13;;;5.30;96.30;;;;;;5100851;28;20464;-78
2023/04/03 07:57:46;;;;;;;3.73;1.17;;;5.40;96.40;;;;;;5083471;28;20636;-73
2023/04/03 08:00:12;;;;;;;2.80;1.07;;;5.60;97.10;;;;;;5075836;28;20538;-74
2023/04/03 08:02:38;;;;;;;9.87;1.23;;;5.60;96.10;;;;;;5076252;28;20454;-76
2023/04/03 08:05:04;;;;;;;4.23;1.60;;;5.90;95.40;;;;;;5080976;28;20439;-78
2023/04/03 08:07:30;;;;;;;3.07;1.37;;;5.90;95.40;;;;;;5076971;28;20585;-75
2023/04/03 08:09:55;;;;;;;1.50;0.97;;;6.00;95.70;;;;;;5070528;28;20454;-75
2023/04/03 08:12:21;;;;;;;4.90;1.00;;;5.90;95.40;;;;;;5065704;28;20972;-75
2023/04/03 08:14:47;;;;;;;2.50;1.03;;;5.90;95.60;;;;;;5067910;28;20220;-75
2023/04/03 08:17:12;;;;;;;3.27;1.57;;;5.90;95.20;;;;;;5069678;28;20263;-74
2023/04/03 08:19:39;;;;;;;11.63;1.70;;;5.90;95.30;;;;;;5071056;28;20267;-75
2023/04/03 08:22:06;;;;;;;1.87;1.10;;;5.80;95.00;;;;;;5069714;28;20673;-74
2023/04/03 08:24:32;;;;;;;2.90;1.30;;;5.80;95.40;;;;;;5083669;28;20860;-77
2023/04/03 08:26:58;;;;;;;1.43;0.77;;;5.70;95.90;;;;;;5069043;28;20431;-75
2023/04/03 08:29:24;;;;;;;1.97;1.30;;;5.40;96.20;;;;;;5069513;28;20463;-75
2023/04/03 08:31:51;;;;;;;3.30;1.50;;;5.30;96.40;;;;;;5068612;28;20220;-75
2023/04/03 08:34:17;;;;;;;2.80;1.17;;;5.60;96.10;;;;;;5071765;28;20461;-75
2023/04/03 08:36:43;;;;;;;2.23;1.37;;;5.70;96.40;;;;;;5072213;28;20415;-75
2023/04/03 08:39:09;;;;;;;3.37;1.10;;;5.90;96.40;;;;;;5070681;28;20423;-74
2023/04/03 08:41:42;;;;;;;4.17;1.40;;;6.20;95.50;;;;;;5085637;28;20525;-76
2023/04/03 08:44:25;;;;;;;6.73;1.00;;;6.20;95.70;;;;;;5070311;28;20477;-77
2023/04/03 08:47:19;;;;;;;4.40;1.13;;;6.30;94.80;;;;;;5084795;28;20423;-74
2023/04/03 08:49:56;;;;;;;2.00;1.00;;;6.30;94.10;;;;;;5068867;28;20881;-75
2023/04/03 08:52:23;;;;;;;2.07;1.17;;;6.00;94.40;;;;;;5083473;28;20485;-77
2023/04/03 08:54:55;;;;;;;2.17;0.93;;;5.80;94.60;;;;;;5067803;28;20456;-75
2023/04/03 08:57:44;;;;;;;2.40;1.27;;;5.70;95.20;;;;;;5069541;28;20419;-75
2023/04/03 09:00:15;;;;;;;3.60;1.10;;;5.60;95.00;;;;;;5068398;28;20435;-76
2023/04/03 09:02:46;;;;;;;2.80;1.53;;;5.40;95.10;;;;;;5066549;28;20455;-75
2023/04/03 09:05:35;;;;;;;2.33;1.10;;;5.40;95.10;;;;;;5067275;28;20419;-74
2023/04/03 09:08:14;;;;;;;4.80;1.07;;;5.30;95.20;;;;;;5065528;28;20831;-74
2023/04/03 09:10:41;;;;;;;6.10;1.33;;;5.30;95.30;;;;;;5066641;28;20504;-76
2023/04/03 09:13:44;;;;;;;2.07;0.70;;;5.30;95.80;;;;;;5082789;28;20494;-75
2023/04/03 09:16:41;;;;;;;2.53;1.30;;;5.30;94.80;;;;;;5068322;28;20952;-75
2023/04/03 09:19:32;;;;;;;1.80;0.93;;;5.30;95.10;;;;;;5065302;28;20432;-76
2023/04/03 09:22:17;;;;;;;2.03;1.03;;;5.10;95.80;;;;;;5066519;28;20538;-75
2023/04/03 09:24:47;;;;;;;1.70;0.87;;;5.30;95.30;;;;;;5066486;28;20518;-79
2023/04/03 09:27:12;;;;;;;4.67;1.43;;;5.30;95.00;;;;;;5066210;28;20427;-75
2023/04/03 09:29:45;;;;;;;2.17;1.10;;;5.40;95.00;;;;;;5082310;28;20894;-75
2023/04/03 09:32:29;;;;;;;2.80;1.30;;;5.40;94.60;;;;;;5083587;28;20723;-76
2023/04/03 09:35:18;;;;;;;3.93;1.70;;;5.50;94.60;;;;;;5066690;28;20427;-75
2023/04/03 09:37:52;;;;;;;2.00;0.93;;;5.50;95.20;;;;;;5054837;28;20450;-77
2023/04/03 09:40:34;;;;;;;3.00;1.33;;;5.60;94.10;;;;;;5061845;28;20427;-76
2023/04/03 09:43:03;;;;;;;3.30;1.20;;;5.70;93.90;;;;;;5063102;28;20451;-75
2023/04/03 09:45:34;;;;;;;5.23;1.20;;;5.80;93.80;;;;;;5079165;28;20526;-75
2023/04/03 09:48:12;;;;;;;2.20;1.30;;;5.70;93.90;;;;;;5067029;28;20447;-77
2023/04/03 09:50:59;;;;;;;2.20;1.37;;;5.60;93.60;;;;;;5066698;28;21190;-76
2023/04/03 09:53:30;;;;;;;3.00;1.07;;;5.70;93.80;;;;;;5053253;28;20428;-77
2023/04/03 09:55:57;;;;;;;2.60;1.10;;;5.60;93.80;;;;;;5065653;28;20430;-75
2023/04/03 09:58:29;;;;;;;2.07;1.10;;;5.50;93.90;;;;;;5067165;28;20420;-75
2023/04/03 10:00:57;;;;;;;3.30;1.00;;;5.40;93.80;;;;;;5067305;28;20434;-77
2023/04/03 10:03:36;;;;;;;6.20;1.07;;;5.50;94.20;;;;;;5067919;28;20407;-75
2023/04/03 10:06:04;;;;;;;1.93;1.10;;;5.30;93.70;;;;;;5065735;28;20930;-77
2023/04/03 10:08:34;;;;;;;1.60;1.10;;;5.30;93.70;;;;;;5068714;28;20434;-76
2023/04/03 10:11:16;;;;;;;2.23;1.27;;;5.30;94.30;;;;;;5067591;28;20419;-76
2023/04/03 10:14:00;;;;;;;2.37;1.17;;;5.20;94.50;;;;;;5067650;28;20448;-73
2023/04/03 10:17:00;;;;;;;2.20;1.30;;;5.30;94.60;;;;;;5068218;28;20411;-77
2023/04/03 10:19:35;;;;;;;2.50;1.20;;;5.40;94.50;;;;;;5059517;28;20448;-73
2023/04/03 10:22:45;;;;;;;2.33;1.40;;;5.40;93.50;;;;;;5085886;28;20485;-74
2023/04/03 10:25:14;;;;;;;2.33;1.00;;;5.50;93.80;;;;;;5065221;28;20472;-74
2023/04/03 10:28:00;;;;;;;2.50;0.90;;;5.50;93.40;;;;;;5070199;28;20902;-77
2023/04/03 10:30:53;;;;;;;3.20;1.43;;;5.60;93.30;;;;;;5069776;28;20459;-73
2023/04/03 10:33:26;;;;;;;2.13;1.00;;;5.60;93.40;;;;;;5084015;28;20426;-77
2023/04/03 10:36:27;;;;;;;2.07;0.80;;;5.70;93.30;;;;;;5068375;28;20415;-73
2023/04/03 10:39:17;;;;;;;2.07;1.23;;;5.60;92.40;;;;;;5069711;28;20423;-71
2023/04/03 10:41:49;;;;;;;2.73;1.23;;;5.60;92.80;;;;;;5065485;28;20495;-75
2023/04/03 10:44:29;;;;;;;3.00;1.00;;;5.80;92.30;;;;;;5086202;28;20480;-75
2023/04/03 10:47:38;;;;;;;3.50;1.17;;;5.90;92.50;;;;;;5065221;28;20473;-76
2023/04/03 10:50:51;;;;;;;1.43;0.93;;;6.00;91.60;;;;;;5081862;28;20463;-76
2023/04/03 10:53:35;;;;;;;2.07;1.43;;;6.00;91.90;;;;;;5048635;28;20422;-74
2023/04/03 10:56:13;;;;;;;3.83;1.77;;;6.00;92.80;;;;;;5063175;28;20458;-76
2023/04/03 10:58:44;;;;;;;4.90;1.40;;;5.90;92.30;;;;;;5065445;28;20411;-74
2023/04/03 11:01:16;;;;;;;3.00;1.17;;;5.90;92.20;;;;;;5081928;28;20420;-74
2023/04/03 11:03:47;;;;;;;1.90;0.93;;;5.90;92.10;;;;;;5084626;28;20530;-77
2023/04/03 11:06:16;;;;;;;1.63;0.90;;;5.80;92.40;;;;;;5066517;28;20415;-74
2023/04/03 11:09:03;;;;;;;2.53;1.10;;;6.00;91.80;;;;;;5065771;28;20419;-78
2023/04/03 11:11:36;;;;;;;5.00;0.97;;;6.10;92.00;;;;;;5065819;28;20522;-73
2023/04/03 11:14:13;;;;;;;1.50;0.90;;;6.10;91.90;;;;;;5064171;28;20474;-77
2023/04/03 11:16:45;;;;;;;8.07;1.30;;;6.20;90.80;;;;;;5083721;28;20447;-75
2023/04/03 11:19:23;;;;;;;1.70;0.73;;;6.30;90.90;;;;;;5062206;28;20435;-74
2023/04/03 11:22:08;;;;;;;3.30;1.17;;;6.40;90.40;;;;;;5067427;28;21255;-74
2023/04/03 11:24:38;;;;;;;1.67;1.03;;;6.40;90.90;;;;;;5086258;28;20459;-75
2023/04/03 11:27:08;;;;;;;3.13;1.00;;;6.30;91.50;;;;;;5069348;28;20427;-75
2023/04/03 11:29:39;;;;;;;1.60;0.90;;;6.20;91.10;;;;;;5074860;28;20458;-76
2023/04/03 11:32:48;;;;;;;2.27;0.97;;;6.30;90.90;;;;;;5077342;28;20549;-77
2023/04/03 11:35:16;;;;;;;2.33;1.13;;;6.10;91.00;;;;;;5072435;28;20428;-82
2023/04/03 11:37:47;;;;;;;2.73;1.00;;;6.30;91.30;;;;;;5094197;28;20419;-82
2023/04/03 11:40:15;;;;;;;9.90;1.30;;;6.30;91.30;;;;;;5094769;28;20407;-80
2023/04/03 11:42:45;;;;;;;3.00;1.00;;;6.30;91.40;;;;;;5095234;28;20442;-79
2023/04/03 11:45:24;;;;;;;3.20;1.20;;;6.30;90.90;;;;;;5097250;28;20465;-79
2023/04/03 11:47:52;;;;;;;3.93;1.10;;;6.20;91.30;;;;;;5095418;28;20422;-75
2023/04/03 11:50:36;;;;;;;3.57;1.20;;;6.10;91.00;;;;;;5076622;28;20522;-74
2023/04/03 11:53:08;;;;;;;3.50;1.40;;;6.10;91.90;;;;;;5070098;28;20438;-75
2023/04/03 11:55:33;;;;;;;4.30;1.77;;;6.10;91.80;;;;;;5070465;28;20419;-75
2023/04/03 11:58:02;;;;;;;3.23;1.27;;;6.00;91.80;;;;;;5071398;28;21115;-75
2023/04/03 12:00:49;;;;;;;2.83;1.13;;;6.00;91.40;;;;;;5072177;28;20177;-75
2023/04/03 12:03:26;;;;;;;3.60;1.03;;;6.00;91.00;;;;;;5069952;28;20459;-75
2023/04/03 12:05:57;;;;;;;1.63;0.70;;;5.90;91.20;;;;;;5072977;28;20433;-77
2023/04/03 12:08:32;;;;;;;3.37;1.30;;;5.90;91.40;;;;;;5070875;28;20510;-77
2023/04/03 12:11:10;;;;;;;2.37;1.33;;;5.80;91.40;;;;;;5088286;28;20541;-75
2023/04/03 12:13:42;;;;;;;3.87;0.97;;;5.90;91.70;;;;;;5069405;28;20404;-75
2023/04/03 12:16:21;;;;;;;2.27;1.20;;;5.80;91.30;;;;;;5071194;28;20412;-76
2023/04/03 12:18:52;;;;;;;1.80;1.00;;;5.90;91.00;;;;;;5070411;28;20412;-75
2023/04/03 12:21:21;;;;;;;3.83;1.33;;;6.00;90.40;;;;;;5087895;28;20515;-75
2023/04/03 12:24:03;;;;;;;3.10;1.20;;;6.20;90.10;;;;;;5068477;28;21023;-76
2023/04/03 12:26:41;;;;;;;4.10;1.13;;;6.50;90.20;;;;;;5070775;28;20416;-75
2023/04/03 12:29:17;;;;;;;2.60;0.97;;;6.70;87.90;;;;;;5070087;28;20447;-77
2023/04/03 12:32:01;;;;;;;1.67;1.03;;;6.70;86.10;;;;;;5069196;28;20459;-74
2023/04/03 12:34:51;;;;;;;3.97;1.27;;;6.60;85.10;;;;;;5068184;28;20416;-75
2023/04/03 12:37:58;;;;;;;2.00;0.90;;;6.40;85.60;;;;;;5069009;28;20552;-75
2023/04/03 12:40:41;;;;;;;1.30;0.67;;;6.20;84.40;;;;;;5068853;28;20436;-75
2023/04/03 12:43:10;;;;;;;7.60;1.00;;;6.10;86.20;;;;;;5067147;28;20442;-75
2023/04/03 12:45:45;;;;;;;2.33;0.80;;;6.10;85.80;;;;;;5084620;28;20441;-78
2023/04/03 12:48:21;;;;;;;4.27;1.50;;;5.90;86.10;;;;;;5068204;28;20418;-75
2023/04/03 12:50:49;;;;;;;3.10;1.20;;;5.90;87.20;;;;;;5067673;28;21128;-79
2023/04/03 12:53:25;;;;;;;2.70;1.00;;;5.90;87.40;;;;;;5066501;28;20465;-76
2023/04/03 12:56:36;;;;;;;2.10;1.20;;;5.80;89.30;;;;;;5066367;28;20412;-75
2023/04/03 12:59:13;;;;;;;2.63;1.00;;;5.70;90.00;;;;;;5068251;28;20849;-76
2023/04/03 13:01:39;;;;;;;1.87;0.93;;;5.70;90.40;;;;;;5067017;28;20655;-75
2023/04/03 13:04:05;;;;;;;2.80;1.10;;;5.80;89.50;;;;;;5067506;28;22094;-78
2023/04/03 13:06:37;;;;;;;2.53;1.30;;;5.90;90.30;;;;;;5067675;28;20779;-75
2023/04/03 13:09:04;;;;;;;3.20;1.37;;;6.00;90.40;;;;;;5066876;28;20581;-77
2023/04/03 13:11:40;;;;;;;2.47;1.00;;;6.30;90.00;;;;;;5066553;28;20435;-75
2023/04/03 13:14:18;;;;;;;2.50;1.03;;;6.40;90.40;;;;;;5065911;28;20416;-75